Time;durP1;ratioP1;P1;durP2;ratioP2;P2;SDS_P1;SDS_P2;PMS_P1;PMS_P2;Temp;Humidity;BMP_temperature;BMP_pressure;BME280_temperature;BME280_humidity;BME280_pressure;Samples;Min_cycle;Max_cycle;Signal;HPM_P1;HPM_P2
2022/02/24 00:02:03;;;;;;;;;;;14.90;39.90;;;;;;5086956;28;20157;-61
2022/02/24 00:04:30;;;;;;;17.15;1.55;;;14.90;39.60;;;;;;5087503;28;20006;-62
2022/02/24 00:06:57;;;;;;;8.23;1.50;;;15.00;38.70;;;;;;5086634;28;20069;-60
2022/02/24 00:09:23;;;;;;;10.73;1.73;;;14.90;38.60;;;;;;5089645;28;20080;-64
2022/02/24 00:11:50;;;;;;;16.52;1.65;;;14.90;37.90;;;;;;5085653;28;20072;-61
2022/02/24 00:14:16;;;;;;;;;;;14.90;36.00;;;;;;5087347;28;20088;-62
2022/02/24 00:16:42;;;;;;;20.38;1.63;;;14.90;35.70;;;;;;5088312;28;19964;-63
2022/02/24 00:19:08;;;;;;;;;;;14.80;35.10;;;;;;5086064;28;20120;-60
2022/02/24 00:21:35;;;;;;;13.63;1.10;;;14.80;34.30;;;;;;5087630;28;19972;-62
2022/02/24 00:24:01;;;;;;;;;;;14.70;34.60;;;;;;5087106;28;20068;-63
2022/02/24 00:26:27;;;;;;;8.70;1.42;;;14.70;34.60;;;;;;5089530;28;19963;-63
2022/02/24 00:28:53;;;;;;;;;;;14.80;34.60;;;;;;5088077;28;20129;-61
2022/02/24 00:31:20;;;;;;;17.08;1.80;;;14.70;34.70;;;;;;5086305;28;20007;-64
2022/02/24 00:33:46;;;;;;;;;;;14.70;35.20;;;;;;5070482;28;20103;-61
2022/02/24 00:36:12;;;;;;;20.40;2.00;;;14.60;37.20;;;;;;5085998;28;20326;-65
2022/02/24 00:38:38;;;;;;;14.88;1.90;;;14.60;37.70;;;;;;5069953;28;20073;-63
2022/02/24 00:41:05;;;;;;;8.32;1.65;;;14.50;37.70;;;;;;5085732;28;20093;-61
2022/02/24 00:43:31;;;;;;;16.17;2.33;;;14.50;37.80;;;;;;5068644;28;20218;-61
2022/02/24 00:45:58;;;;;;;7.97;2.00;;;14.40;38.00;;;;;;5069530;28;20096;-62
2022/02/24 00:48:24;;;;;;;;;;;14.40;37.90;;;;;;5106863;28;20557;-64
2022/02/24 00:50:50;;;;;;;9.50;1.55;;;14.40;38.70;;;;;;5073287;28;20007;-62
2022/02/24 00:53:16;;;;;;;;;;;14.30;39.30;;;;;;5088989;28;20235;-60
2022/02/24 00:55:44;;;;;;;17.08;2.08;;;14.20;39.30;;;;;;5089007;28;20051;-63
2022/02/24 00:58:10;;;;;;;11.50;2.35;;;14.10;39.20;;;;;;5092106;28;20528;-64
2022/02/24 01:00:36;;;;;;;10.98;1.90;;;14.00;38.60;;;;;;5089033;28;20481;-61
2022/02/24 01:03:03;;;;;;;;;;;13.90;38.80;;;;;;5089285;28;20472;-63
2022/02/24 01:05:29;;;;;;;12.13;2.20;;;13.80;39.00;;;;;;5090636;28;19957;-59
2022/02/24 01:07:55;;;;;;;;;;;13.60;39.30;;;;;;5090234;28;20181;-65
2022/02/24 01:10:21;;;;;;;8.35;2.10;;;13.60;40.00;;;;;;5091191;28;20018;-64
2022/02/24 01:12:48;;;;;;;;;;;13.60;40.60;;;;;;5057025;28;20438;-60
2022/02/24 01:15:14;;;;;;;4.65;1.88;;;13.50;41.00;;;;;;5094610;28;19972;-59
2022/02/24 01:17:43;;;;;;;9.52;2.38;;;13.40;41.60;;;;;;5087642;28;20076;-63
2022/02/24 01:20:10;;;;;;;6.70;2.22;;;13.30;42.10;;;;;;5090257;28;20579;-61
2022/02/24 01:22:37;;;;;;;17.45;3.35;;;13.30;42.50;;;;;;5089805;28;20085;-62
2022/02/24 01:25:04;;;;;;;4.90;1.70;;;13.30;42.60;;;;;;5057669;28;20147;-60
2022/02/24 01:27:31;;;;;;;9.90;1.80;;;13.20;42.70;;;;;;5095129;28;20596;-66
2022/02/24 01:29:58;;;;;;;;;;;13.10;42.50;;;;;;5092612;28;20091;-60
2022/02/24 01:32:25;;;;;;;15.23;1.73;;;13.10;42.70;;;;;;5089083;28;19956;-61
2022/02/24 01:34:58;;;;;;;11.52;1.48;;;13.10;42.80;;;;;;5090802;28;20123;-63
2022/02/24 01:37:28;;;;;;;10.75;1.70;;;13.00;42.90;;;;;;5090216;28;20099;-64
2022/02/24 01:39:54;;;;;;;7.95;1.70;;;13.00;43.10;;;;;;5089756;28;20068;-64
2022/02/24 01:42:21;;;;;;;10.00;1.70;;;13.00;43.20;;;;;;5086495;28;20073;-63
2022/02/24 01:44:47;;;;;;;;;;;12.90;43.50;;;;;;5090537;28;20100;-61
2022/02/24 01:47:14;;;;;;;14.68;2.33;;;12.90;43.70;;;;;;5089434;28;20039;-63
2022/02/24 01:49:42;;;;;;;12.00;1.90;;;12.90;44.00;;;;;;5072476;28;20134;-60
2022/02/24 01:52:11;;;;;;;8.48;1.88;;;12.70;44.00;;;;;;5089038;28;20075;-60
2022/02/24 01:54:39;;;;;;;9.90;2.05;;;12.80;44.30;;;;;;5088844;28;20526;-62
2022/02/24 01:57:06;;;;;;;13.32;2.00;;;12.70;44.40;;;;;;5071073;28;20085;-62
2022/02/24 01:59:34;;;;;;;10.65;1.65;;;12.70;45.00;;;;;;5090454;28;20498;-62
2022/02/24 02:02:00;;;;;;;8.50;1.65;;;12.70;45.00;;;;;;5087936;28;20104;-57
2022/02/24 02:04:26;;;;;;;;;;;12.70;45.20;;;;;;5090019;28;20138;-60
2022/02/24 02:06:54;;;;;;;7.22;1.75;;;12.60;45.40;;;;;;5089611;28;20001;-59
2022/02/24 02:09:21;;;;;;;13.48;1.95;;;12.60;45.50;;;;;;5088792;28;20118;-63
2022/02/24 02:11:47;;;;;;;15.63;2.45;;;12.50;45.60;;;;;;5072331;28;20077;-62
2022/02/24 02:14:14;;;;;;;24.23;3.17;;;12.50;45.60;;;;;;5092357;28;20072;-61
2022/02/24 02:16:44;;;;;;;;;;;12.40;45.60;;;;;;5072532;28;20082;-60
2022/02/24 02:19:10;;;;;;;42.13;3.72;;;12.40;45.60;;;;;;5086820;28;20764;-62
2022/02/24 02:21:37;;;;;;;29.23;3.20;;;12.40;45.40;;;;;;5088512;28;20093;-60
2022/02/24 02:24:05;;;;;;;35.80;3.33;;;12.40;45.10;;;;;;5089569;28;20213;-62
2022/02/24 02:26:31;;;;;;;35.55;3.22;;;12.40;44.70;;;;;;5088812;28;20147;-60
2022/02/24 02:29:04;;;;;;;33.67;3.88;;;12.40;44.70;;;;;;5088617;28;20139;-60
2022/02/24 02:31:30;;;;;;;43.67;3.67;;;12.40;44.90;;;;;;5087297;28;20595;-61
2022/02/24 02:34:03;;;;;;;;;;;12.30;45.60;;;;;;5089703;28;20573;-61
2022/02/24 02:36:30;;;;;;;38.15;3.67;;;12.30;45.20;;;;;;5086892;28;20043;-62
2022/02/24 02:38:56;;;;;;;47.17;3.72;;;12.20;45.40;;;;;;5087241;28;20089;-61
2022/02/24 02:41:28;;;;;;;45.13;3.78;;;12.20;45.60;;;;;;5088578;28;20090;-62
2022/02/24 02:43:55;;;;;;;42.60;2.88;;;12.20;45.90;;;;;;5087513;28;20602;-61
2022/02/24 02:46:22;;;;;;;25.65;2.83;;;12.10;46.90;;;;;;5089519;28;20083;-61
2022/02/24 02:48:48;;;;;;;;;;;12.10;46.70;;;;;;5090278;28;20076;-62
2022/02/24 02:51:14;;;;;;;29.80;3.05;;;12.00;47.20;;;;;;5088770;28;19979;-62
2022/02/24 02:53:40;;;;;;;;;;;11.90;47.80;;;;;;5091837;28;20100;-58
2022/02/24 02:56:07;;;;;;;21.98;2.53;;;11.80;48.10;;;;;;5088220;28;20054;-61
2022/02/24 02:58:33;;;;;;;27.55;2.28;;;11.70;48.40;;;;;;5070651;28;20122;-63
2022/02/24 03:01:00;;;;;;;;;;;11.70;48.70;;;;;;5086791;28;20177;-61
2022/02/24 03:03:26;;;;;;;25.52;2.50;;;11.60;48.90;;;;;;5086816;28;19961;-61
2022/02/24 03:05:54;;;;;;;26.48;3.22;;;11.50;49.20;;;;;;5088616;28;20069;-62
2022/02/24 03:08:21;;;;;;;42.60;3.13;;;11.50;49.40;;;;;;5087309;28;20065;-62
2022/02/24 03:10:48;;;;;;;36.80;2.55;;;11.50;49.70;;;;;;5083752;28;20084;-61
2022/02/24 03:13:15;;;;;;;36.78;2.97;;;11.30;50.30;;;;;;5090743;28;20072;-60
2022/02/24 03:15:42;;;;;;;35.42;3.50;;;11.30;50.70;;;;;;5092017;28;20089;-62
2022/02/24 03:18:10;;;;;;;53.58;4.13;;;11.20;50.80;;;;;;5087336;28;20093;-61
2022/02/24 03:20:36;;;;;;;41.17;4.65;;;11.10;50.90;;;;;;5086489;28;20093;-61
2022/02/24 03:23:06;;;;;;;41.15;4.28;;;11.20;50.90;;;;;;5087137;28;20069;-61
2022/02/24 03:25:33;;;;;;;59.10;4.10;;;11.20;50.90;;;;;;5090217;28;20084;-62
2022/02/24 03:28:00;;;;;;;36.70;4.13;;;11.10;51.20;;;;;;5085890;28;20167;-61
2022/02/24 03:30:27;;;;;;;54.20;4.30;;;11.00;51.60;;;;;;5086982;28;20125;-61
2022/02/24 03:32:54;;;;;;;44.42;4.50;;;11.00;51.90;;;;;;5088760;28;20098;-62
2022/02/24 03:35:22;;;;;;;67.57;5.03;;;10.90;52.10;;;;;;5087031;28;20135;-62
2022/02/24 03:37:48;;;;;;;79.68;7.30;;;11.00;52.20;;;;;;5085633;28;20069;-61
2022/02/24 03:40:16;;;;;;;76.03;5.28;;;10.90;52.20;;;;;;5085133;28;20092;-64
2022/02/24 03:42:43;;;;;;;71.22;5.80;;;10.90;52.50;;;;;;5085840;28;20519;-65
2022/02/24 03:45:10;;;;;;;74.38;7.03;;;10.90;52.40;;;;;;5069317;28;20077;-63
2022/02/24 03:47:37;;;;;;;62.70;5.18;;;10.90;52.20;;;;;;5088629;28;20079;-63
2022/02/24 03:50:06;;;;;;;59.42;5.93;;;10.80;52.00;;;;;;5087703;28;20084;-59
2022/02/24 03:52:33;;;;;;;54.55;5.68;;;10.80;52.00;;;;;;5053459;28;20108;-63
2022/02/24 03:54:59;;;;;;;53.65;4.65;;;10.80;52.00;;;;;;5070759;28;20152;-64
2022/02/24 03:57:26;;;;;;;36.33;4.43;;;10.80;51.80;;;;;;5087045;28;20073;-60
2022/02/24 03:59:52;;;;;;;33.55;3.55;;;10.80;51.60;;;;;;5085818;28;20153;-61
2022/02/24 04:02:18;;;;;;;;;;;10.80;51.50;;;;;;5070304;28;20246;-59
2022/02/24 04:04:44;;;;;;;37.67;5.18;;;10.80;51.20;;;;;;5088838;28;20039;-62
2022/02/24 04:07:11;;;;;;;34.80;5.70;;;10.80;51.00;;;;;;5070476;28;20570;-60
2022/02/24 04:09:38;;;;;;;27.50;4.20;;;10.80;50.90;;;;;;5087914;28;20101;-61
2022/02/24 04:12:06;;;;;;;21.65;3.63;;;10.80;50.70;;;;;;5085657;28;20068;-61
2022/02/24 04:14:32;;;;;;;27.77;5.72;;;10.90;50.60;;;;;;5085528;28;20081;-63
2022/02/24 04:16:59;;;;;;;19.00;4.25;;;10.90;50.50;;;;;;5092547;28;20084;-62
2022/02/24 04:19:26;;;;;;;25.30;4.50;;;10.90;50.40;;;;;;5085745;28;20138;-61
2022/02/24 04:21:53;;;;;;;20.13;3.30;;;10.90;50.30;;;;;;5086763;28;20119;-60
2022/02/24 04:24:19;;;;;;;21.42;3.53;;;10.90;50.30;;;;;;5059538;28;20064;-61
2022/02/24 04:26:46;;;;;;;14.23;3.95;;;10.90;50.20;;;;;;5090310;28;20510;-60
2022/02/24 04:29:12;;;;;;;;;;;10.90;50.20;;;;;;5092022;28;20080;-60
2022/02/24 04:31:38;;;;;;;19.10;7.13;;;10.90;50.30;;;;;;5090978;28;19957;-60
2022/02/24 04:34:04;;;;;;;16.13;6.90;;;10.80;50.30;;;;;;5090713;28;20068;-60
2022/02/24 04:36:30;;;;;;;;;;;10.80;50.40;;;;;;5090568;28;20485;-60
2022/02/24 04:38:57;;;;;;;13.02;4.07;;;10.80;50.50;;;;;;5090542;28;19968;-60
2022/02/24 04:41:23;;;;;;;14.20;3.35;;;10.80;50.40;;;;;;5094290;28;20089;-61
2022/02/24 04:43:50;;;;;;;13.10;2.88;;;10.90;50.50;;;;;;5090463;28;20069;-61
2022/02/24 04:46:16;;;;;;;17.38;3.10;;;10.90;50.60;;;;;;5089905;28;20176;-60
2022/02/24 04:48:42;;;;;;;;;;;10.80;50.50;;;;;;5072845;28;20126;-61
2022/02/24 04:51:08;;;;;;;12.75;3.47;;;10.80;50.70;;;;;;5089910;28;19956;-60
2022/02/24 04:53:34;;;;;;;;;;;10.80;50.80;;;;;;5088873;28;20476;-60
2022/02/24 04:56:01;;;;;;;11.38;2.50;;;10.80;50.70;;;;;;5090439;28;19960;-57
2022/02/24 04:58:27;;;;;;;;;;;10.80;50.70;;;;;;5091582;28;20069;-60
2022/02/24 05:00:53;;;;;;;8.27;2.70;;;10.70;50.60;;;;;;5090174;28;19995;-60
2022/02/24 05:03:20;;;;;;;13.00;2.45;;;10.70;50.60;;;;;;5073281;28;20080;-60
2022/02/24 05:05:46;;;;;;;;;;;10.70;50.60;;;;;;5091390;28;20077;-60
2022/02/24 05:08:12;;;;;;;6.63;2.17;;;10.70;50.30;;;;;;5091182;28;20407;-60
2022/02/24 05:10:38;;;;;;;;;;;10.70;50.20;;;;;;5091314;28;20080;-61
2022/02/24 05:13:04;;;;;;;11.25;2.40;;;10.70;49.90;;;;;;5072983;28;19956;-60
2022/02/24 05:15:30;;;;;;;;;;;10.80;50.00;;;;;;5089227;28;20218;-60
2022/02/24 05:17:57;;;;;;;7.80;2.42;;;10.70;49.70;;;;;;5089478;28;20099;-63
2022/02/24 05:20:24;;;;;;;5.18;1.83;;;10.80;49.50;;;;;;5091108;28;20087;-57
2022/02/24 05:22:50;;;;;;;7.30;2.20;;;10.70;49.30;;;;;;5090395;28;20715;-61
2022/02/24 05:25:17;;;;;;;8.77;2.80;;;10.70;49.10;;;;;;5089172;28;20088;-59
2022/02/24 05:27:45;;;;;;;6.47;2.15;;;10.80;49.00;;;;;;5089519;28;20083;-60
2022/02/24 05:30:13;;;;;;;8.20;2.65;;;10.70;48.90;;;;;;5072244;28;20134;-61
2022/02/24 05:32:41;;;;;;;13.57;3.13;;;10.70;48.90;;;;;;5088285;28;20442;-60
2022/02/24 05:35:08;;;;;;;8.57;2.90;;;10.80;48.80;;;;;;5089213;28;20110;-60
2022/02/24 05:37:35;;;;;;;6.82;1.88;;;10.80;48.70;;;;;;5089361;28;20093;-61
2022/02/24 05:40:03;;;;;;;7.22;2.30;;;10.80;48.70;;;;;;5071863;28;20113;-60
2022/02/24 05:42:29;;;;;;;8.15;2.42;;;10.70;48.70;;;;;;5089072;28;20069;-62
2022/02/24 05:44:55;;;;;;;;;;;10.70;48.90;;;;;;5071300;28;20096;-59
2022/02/24 05:47:22;;;;;;;8.40;1.88;;;10.70;48.90;;;;;;5088751;28;20424;-59
2022/02/24 05:49:49;;;;;;;10.43;1.92;;;10.70;48.90;;;;;;5089465;28;20073;-60
2022/02/24 05:52:15;;;;;;;9.52;1.80;;;10.60;49.00;;;;;;5088211;28;20121;-60
2022/02/24 05:54:41;;;;;;;;;;;10.60;49.20;;;;;;5055283;28;20164;-60
2022/02/24 05:57:08;;;;;;;9.18;2.03;;;10.60;49.20;;;;;;5088539;28;19957;-57
2022/02/24 05:59:34;;;;;;;;;;;10.60;49.30;;;;;;5090554;28;20076;-58
2022/02/24 06:02:00;;;;;;;7.40;2.00;;;10.60;49.20;;;;;;5088296;28;19984;-61
2022/02/24 06:04:26;;;;;;;;;;;10.60;49.30;;;;;;5090189;28;20457;-55
2022/02/24 06:06:53;;;;;;;7.45;2.10;;;10.60;49.30;;;;;;5089705;28;19965;-59
2022/02/24 06:09:19;;;;;;;;;;;10.60;49.40;;;;;;5072235;28;20075;-59
2022/02/24 06:11:49;;;;;;;4.50;2.10;;;10.50;49.40;;;;;;5089937;28;20106;-58
2022/02/24 06:14:16;;;;;;;11.38;2.70;;;10.50;49.50;;;;;;5053510;28;20407;-59
2022/02/24 06:16:43;;;;;;;7.95;2.20;;;10.60;49.60;;;;;;5087625;28;20075;-57
2022/02/24 06:19:09;;;;;;;;;;;10.50;49.60;;;;;;5088412;28;20372;-61
2022/02/24 06:21:35;;;;;;;7.35;2.17;;;10.60;49.60;;;;;;5084480;28;19999;-59
2022/02/24 06:24:01;;;;;;;;;;;10.50;49.40;;;;;;5103896;28;20072;-57
2022/02/24 06:26:28;;;;;;;6.28;1.60;;;10.50;49.10;;;;;;5087909;28;19963;-60
2022/02/24 06:28:54;;;;;;;;;;;10.50;49.10;;;;;;5072570;28;20088;-60
2022/02/24 06:31:20;;;;;;;5.13;1.40;;;10.50;49.20;;;;;;5089438;28;19956;-59
2022/02/24 06:33:46;;;;;;;5.85;1.75;;;10.50;49.10;;;;;;5089454;28;20103;-59
2022/02/24 06:36:13;;;;;;;4.43;1.65;;;10.50;49.10;;;;;;5088761;28;20119;-63
2022/02/24 06:38:39;;;;;;;;;;;10.50;49.00;;;;;;5072503;28;20091;-64
2022/02/24 06:41:05;;;;;;;9.00;1.80;;;10.50;49.10;;;;;;5088685;28;19981;-60
2022/02/24 06:43:32;;;;;;;4.38;1.35;;;10.50;49.20;;;;;;5088117;28;20073;-61
2022/02/24 06:45:58;;;;;;;5.70;2.08;;;10.50;49.30;;;;;;5086915;28;20118;-63
2022/02/24 06:48:25;;;;;;;;;;;10.60;49.40;;;;;;5087550;28;20095;-62
2022/02/24 06:50:52;;;;;;;10.30;2.38;;;10.50;49.50;;;;;;5087797;28;19957;-60
2022/02/24 06:53:18;;;;;;;10.02;4.15;;;10.50;49.50;;;;;;5087978;28;20176;-63
2022/02/24 06:55:44;;;;;;;;;;;10.50;49.50;;;;;;5090066;28;20080;-59
2022/02/24 06:58:10;;;;;;;13.02;6.43;;;10.60;49.50;;;;;;5087858;28;20048;-61
2022/02/24 07:00:37;;;;;;;;;;;10.60;49.30;;;;;;5071711;28;20116;-60
2022/02/24 07:03:03;;;;;;;15.82;6.32;;;10.60;49.20;;;;;;5087592;28;20326;-62
2022/02/24 07:05:29;;;;;;;;;;;10.50;49.10;;;;;;5072258;28;20106;-60
2022/02/24 07:07:58;;;;;;;17.52;7.07;;;10.50;49.30;;;;;;5095031;28;19953;-62
2022/02/24 07:10:24;;;;;;;17.85;7.20;;;10.50;49.50;;;;;;5088136;28;20073;-58
2022/02/24 07:12:51;;;;;;;18.95;7.22;;;10.50;49.80;;;;;;5087027;28;20451;-63
2022/02/24 07:15:17;;;;;;;17.67;6.70;;;10.50;50.00;;;;;;5088735;28;20080;-61
2022/02/24 07:17:45;;;;;;;19.88;7.22;;;10.40;50.10;;;;;;5087717;28;20437;-63
2022/02/24 07:20:13;;;;;;;17.42;7.35;;;10.40;50.20;;;;;;5087574;28;20081;-61
2022/02/24 07:22:40;;;;;;;21.90;7.90;;;10.30;50.60;;;;;;5084168;28;20073;-62
2022/02/24 07:25:07;;;;;;;19.15;7.15;;;10.30;51.30;;;;;;5087988;28;20080;-61
2022/02/24 07:27:34;;;;;;;17.17;5.10;;;10.40;50.90;;;;;;5086315;28;20069;-64
2022/02/24 07:30:02;;;;;;;8.65;3.08;;;10.30;50.90;;;;;;5087617;28;20107;-62
2022/02/24 07:32:29;;;;;;;8.43;2.28;;;10.30;51.10;;;;;;5068509;28;20561;-62
2022/02/24 07:34:55;;;;;;;;;;;10.30;51.20;;;;;;5071692;28;20088;-61
2022/02/24 07:37:22;;;;;;;10.63;2.05;;;10.30;51.30;;;;;;5089585;28;20009;-62
2022/02/24 07:39:49;;;;;;;10.40;2.25;;;10.30;51.30;;;;;;5087461;28;20081;-61
2022/02/24 07:42:17;;;;;;;4.53;1.50;;;10.20;51.30;;;;;;5087287;28;20175;-62
2022/02/24 07:44:47;;;;;;;5.22;1.73;;;10.30;51.40;;;;;;5070543;28;20126;-61
2022/02/24 07:47:14;;;;;;;4.57;1.63;;;10.30;51.40;;;;;;5069965;28;20091;-63
2022/02/24 07:49:41;;;;;;;5.03;2.00;;;10.30;51.30;;;;;;5086793;28;20069;-62
2022/02/24 07:52:08;;;;;;;6.97;2.00;;;10.20;51.30;;;;;;5086835;28;20099;-61
2022/02/24 07:54:34;;;;;;;5.20;2.08;;;10.30;51.40;;;;;;5088910;28;20093;-61
2022/02/24 07:57:01;;;;;;;7.78;2.40;;;10.20;51.40;;;;;;5093967;28;20080;-64
2022/02/24 07:59:28;;;;;;;9.57;2.72;;;10.20;52.20;;;;;;5068613;28;20476;-62
2022/02/24 08:01:54;;;;;;;11.75;3.20;;;10.20;51.80;;;;;;5084265;28;20566;-62
2022/02/24 08:04:20;;;;;;;;;;;10.20;52.00;;;;;;5085385;28;20081;-61
2022/02/24 08:06:47;;;;;;;11.85;3.40;;;10.10;52.00;;;;;;5089034;28;19960;-62
2022/02/24 08:09:13;;;;;;;;;;;10.10;52.20;;;;;;5070038;28;20069;-61
2022/02/24 08:11:39;;;;;;;11.32;3.42;;;10.00;52.30;;;;;;5087590;28;19957;-61
2022/02/24 08:14:05;;;;;;;;;;;10.10;52.40;;;;;;5088744;28;20112;-63
2022/02/24 08:16:32;;;;;;;6.40;2.20;;;10.10;52.40;;;;;;5086853;28;19957;-62
2022/02/24 08:19:01;;;;;;;9.73;2.33;;;10.00;52.40;;;;;;5071127;28;20145;-61
2022/02/24 08:21:28;;;;;;;5.75;2.25;;;10.00;52.50;;;;;;5070414;28;20141;-61
2022/02/24 08:23:54;;;;;;;8.20;2.65;;;10.00;52.40;;;;;;5085586;28;20125;-61
2022/02/24 08:26:21;;;;;;;5.63;2.15;;;9.90;52.40;;;;;;5086180;28;20065;-60
2022/02/24 08:28:50;;;;;;;13.30;3.60;;;9.90;52.30;;;;;;5070683;28;20099;-63
2022/02/24 08:31:16;;;;;;;10.02;3.55;;;9.90;52.40;;;;;;5070128;28;20526;-60
2022/02/24 08:33:42;;;;;;;;;;;9.80;52.20;;;;;;5087205;28;20085;-61
2022/02/24 08:36:09;;;;;;;15.25;4.85;;;9.70;52.10;;;;;;5089826;28;19952;-61
2022/02/24 08:38:34;;;;;;;;;;;9.80;52.20;;;;;;5088311;28;20121;-61
2022/02/24 08:41:01;;;;;;;10.70;3.45;;;9.70;52.10;;;;;;5087026;28;19996;-61
2022/02/24 08:43:27;;;;;;;13.02;3.35;;;9.70;52.10;;;;;;5070194;28;20079;-62
2022/02/24 08:45:53;;;;;;;;;;;9.70;52.10;;;;;;5070731;28;20461;-60
2022/02/24 08:48:20;;;;;;;8.45;2.30;;;9.70;52.00;;;;;;5086248;28;20034;-59
2022/02/24 08:50:46;;;;;;;;;;;9.70;52.00;;;;;;5086695;28;20072;-59
2022/02/24 08:53:12;;;;;;;6.90;1.88;;;9.70;52.00;;;;;;5087008;28;20426;-61
2022/02/24 08:55:38;;;;;;;;;;;9.60;52.10;;;;;;5071276;28;20088;-58
2022/02/24 08:58:07;;;;;;;7.32;2.38;;;9.60;52.10;;;;;;5086263;28;19963;-60
2022/02/24 09:00:34;;;;;;;8.77;2.42;;;9.60;52.10;;;;;;5068853;28;20607;-61
2022/02/24 09:03:01;;;;;;;9.60;2.55;;;9.60;51.90;;;;;;5082947;28;20422;-61
2022/02/24 09:05:28;;;;;;;7.90;2.50;;;9.60;51.80;;;;;;5085847;28;20075;-60
2022/02/24 09:07:54;;;;;;;5.72;2.00;;;9.60;51.70;;;;;;5087408;28;20430;-62
2022/02/24 09:10:20;;;;;;;;;;;9.60;51.70;;;;;;5089345;28;20092;-61
2022/02/24 09:12:47;;;;;;;13.80;3.65;;;9.60;51.90;;;;;;5090925;28;20010;-59
2022/02/24 09:15:13;;;;;;;15.18;3.97;;;9.50;52.00;;;;;;5073547;28;20550;-62
2022/02/24 09:17:39;;;;;;;;;;;9.40;52.00;;;;;;5088943;28;20088;-60
2022/02/24 09:20:06;;;;;;;13.73;3.50;;;9.40;52.30;;;;;;5089024;28;19983;-60
2022/02/24 09:22:33;;;;;;;12.70;3.40;;;9.30;52.30;;;;;;5088547;28;20069;-61
2022/02/24 09:24:59;;;;;;;;;;;9.30;52.30;;;;;;5073004;28;20085;-58
2022/02/24 09:27:28;;;;;;;8.65;2.40;;;9.30;52.30;;;;;;5073328;28;20418;-61
2022/02/24 09:29:55;;;;;;;6.97;2.15;;;9.30;52.40;;;;;;5087924;28;20586;-61
2022/02/24 09:32:21;;;;;;;10.52;1.98;;;9.30;52.60;;;;;;5090084;28;20110;-62
2022/02/24 09:34:48;;;;;;;7.28;1.98;;;9.30;52.70;;;;;;5088918;28;20080;-60
2022/02/24 09:37:14;;;;;;;;;;;9.40;52.60;;;;;;5089900;28;20736;-60
2022/02/24 09:39:40;;;;;;;7.55;1.95;;;9.30;52.50;;;;;;5089190;28;19971;-61
2022/02/24 09:42:06;;;;;;;6.32;1.60;;;9.30;52.50;;;;;;5088586;28;20095;-57
2022/02/24 09:44:33;;;;;;;9.57;2.03;;;9.30;52.50;;;;;;5089557;28;20092;-60
2022/02/24 09:47:01;;;;;;;5.40;1.70;;;9.30;52.90;;;;;;5088194;28;20077;-59
2022/02/24 09:49:30;;;;;;;9.05;2.20;;;9.20;53.60;;;;;;5089410;28;20081;-60
2022/02/24 09:51:58;;;;;;;4.72;1.90;;;9.20;53.60;;;;;;5088763;28;20077;-59
2022/02/24 09:54:25;;;;;;;8.93;2.13;;;9.10;53.60;;;;;;5089337;28;20218;-60
2022/02/24 09:56:54;;;;;;;10.65;2.47;;;9.00;53.70;;;;;;5088612;28;20073;-58
2022/02/24 09:59:22;;;;;;;7.63;1.80;;;9.00;54.50;;;;;;5085845;28;20077;-60
2022/02/24 10:01:50;;;;;;;7.53;2.22;;;9.00;54.00;;;;;;5087605;28;20447;-60
2022/02/24 10:04:17;;;;;;;8.07;2.63;;;8.90;54.00;;;;;;5088199;28;20068;-60
2022/02/24 10:06:43;;;;;;;;;;;8.80;54.30;;;;;;5089201;28;20083;-60
2022/02/24 10:09:18;;;;;;;9.13;2.07;;;8.80;54.40;;;;;;5070946;28;19964;-60
2022/02/24 10:11:46;;;;;;;10.82;2.50;;;8.70;54.40;;;;;;5090149;28;20125;-61
2022/02/24 10:14:24;;;;;;;8.52;2.10;;;8.70;54.50;;;;;;5088247;28;20171;-60
2022/02/24 10:17:04;;;;;;;11.27;2.15;;;8.60;54.50;;;;;;5089570;28;20096;-60
2022/02/24 10:19:30;;;;;;;10.05;2.22;;;8.60;54.50;;;;;;5070631;28;20183;-60
2022/02/24 10:22:19;;;;;;;;;;;8.60;54.60;;;;;;5091064;28;20900;-59
2022/02/24 10:25:06;;;;;;;8.63;2.50;;;8.50;54.60;;;;;;5087004;28;19992;-59
2022/02/24 10:27:34;;;;;;;;;;;8.50;54.80;;;;;;5088343;28;20072;-61
2022/02/24 10:30:01;;;;;;;;;;;8.50;54.90;;;;;;5088329;28;20349;-60
2022/02/24 10:32:44;;;;;;;9.77;2.30;;;8.50;55.00;;;;;;5088284;28;20334;-59
2022/02/24 10:35:30;;;;;;;7.75;2.33;;;8.60;54.90;;;;;;5089088;28;20238;-59
2022/02/24 10:38:00;;;;;;;12.38;2.55;;;8.60;54.90;;;;;;5088151;28;20537;-59
2022/02/24 10:40:29;;;;;;;8.60;2.45;;;8.50;54.80;;;;;;5070510;28;20069;-61
2022/02/24 10:43:19;;;;;;;12.75;2.55;;;8.50;55.00;;;;;;5088301;28;20093;-60
2022/02/24 10:45:48;;;;;;;11.05;2.92;;;8.40;55.00;;;;;;5087631;28;20142;-59
2022/02/24 10:48:14;;;;;;;11.63;2.97;;;8.40;55.00;;;;;;5087204;28;20149;-62
2022/02/24 10:50:58;;;;;;;10.10;3.03;;;8.50;55.10;;;;;;5088029;28;20477;-61
2022/02/24 10:53:29;;;;;;;12.63;3.80;;;8.40;55.00;;;;;;5087676;28;20163;-60
2022/02/24 10:56:07;;;;;;;13.25;3.65;;;8.40;55.70;;;;;;5090162;28;20461;-60
2022/02/24 10:58:43;;;;;;;10.70;3.65;;;8.40;55.30;;;;;;5088245;28;20626;-60
2022/02/24 11:01:20;;;;;;;11.70;4.15;;;8.30;55.50;;;;;;5087905;28;20112;-60
2022/02/24 11:03:57;;;;;;;15.07;3.88;;;8.30;55.70;;;;;;5087803;28;20076;-60
2022/02/24 11:06:26;;;;;;;17.80;4.40;;;8.20;55.90;;;;;;5070993;28;20075;-60
2022/02/24 11:08:55;;;;;;;12.07;3.42;;;8.30;56.10;;;;;;5088093;28;20073;-59
2022/02/24 11:11:29;;;;;;;9.45;3.10;;;8.30;56.10;;;;;;5087396;28;20551;-60
2022/02/24 11:13:57;;;;;;;6.35;2.65;;;8.30;56.10;;;;;;5090484;28;20631;-60
2022/02/24 11:16:25;;;;;;;9.45;3.38;;;8.30;56.20;;;;;;5088487;28;20076;-59
2022/02/24 11:18:52;;;;;;;9.07;2.63;;;8.10;56.40;;;;;;5088019;28;20126;-58
2022/02/24 11:21:21;;;;;;;10.88;2.70;;;8.10;56.60;;;;;;5070359;28;20081;-58
2022/02/24 11:23:49;;;;;;;8.30;2.35;;;8.20;56.70;;;;;;5071198;28;20080;-60
2022/02/24 11:26:39;;;;;;;12.00;3.00;;;8.10;56.90;;;;;;5070630;28;20213;-59
2022/02/24 11:29:27;;;;;;;9.00;2.70;;;8.20;57.10;;;;;;5087640;28;20068;-60
2022/02/24 11:32:06;;;;;;;;;;;8.10;57.20;;;;;;5085046;28;20072;-60
2022/02/24 11:34:57;;;;;;;8.25;1.92;;;8.10;57.20;;;;;;5087252;28;19956;-61
2022/02/24 11:37:28;;;;;;;9.38;2.20;;;8.10;57.50;;;;;;5087714;28;20084;-62
2022/02/24 11:40:09;;;;;;;5.97;2.15;;;8.00;57.50;;;;;;5087233;28;20187;-61
2022/02/24 11:43:00;;;;;;;6.60;2.60;;;8.00;57.90;;;;;;5068652;28;20080;-60
2022/02/24 11:45:27;;;;;;;13.23;2.20;;;8.00;58.00;;;;;;5086430;28;20142;-59
2022/02/24 11:48:02;;;;;;;;;;;7.90;58.00;;;;;;5088293;28;20542;-60
2022/02/24 11:50:37;;;;;;;8.27;1.98;;;7.80;58.20;;;;;;5087147;28;19972;-60
2022/02/24 11:53:07;;;;;;;5.57;1.83;;;7.80;58.60;;;;;;5087044;28;20073;-61
2022/02/24 11:55:57;;;;;;;7.78;1.98;;;7.80;58.70;;;;;;5085738;28;20134;-58
2022/02/24 11:58:41;;;;;;;4.32;1.50;;;7.80;58.90;;;;;;5069641;28;20065;-61
2022/02/24 12:01:34;;;;;;;4.93;1.90;;;7.70;59.10;;;;;;5086252;28;20104;-60
2022/02/24 12:04:07;;;;;;;7.22;1.88;;;7.70;59.20;;;;;;5068999;28;20072;-61
2022/02/24 12:06:52;;;;;;;6.53;1.92;;;7.70;59.40;;;;;;5089092;28;20100;-61
2022/02/24 12:10:05;;;;;;;13.68;1.83;;;7.70;59.50;;;;;;5088362;28;20171;-61
2022/02/24 12:12:31;;;;;;;7.32;1.60;;;7.60;59.60;;;;;;5087292;28;20072;-61
2022/02/24 12:14:58;;;;;;;;;;;7.70;59.80;;;;;;5088225;28;20092;-60
2022/02/24 12:17:27;;;;;;;8.63;1.55;;;7.60;59.70;;;;;;5070864;28;19957;-62
2022/02/24 12:19:58;;;;;;;6.38;2.20;;;7.60;59.80;;;;;;5086810;28;20089;-60
2022/02/24 12:22:43;;;;;;;8.98;1.65;;;7.50;59.90;;;;;;5087174;28;20084;-60
2022/02/24 12:25:26;;;;;;;6.45;1.83;;;7.50;60.40;;;;;;5070086;28;20072;-62
2022/02/24 12:28:06;;;;;;;6.65;1.92;;;7.50;60.80;;;;;;5086974;28;20068;-61
2022/02/24 12:30:43;;;;;;;9.25;1.83;;;7.50;61.10;;;;;;5087322;28;20069;-60
2022/02/24 12:33:14;;;;;;;10.50;1.75;;;7.40;61.40;;;;;;5070446;28;20068;-60
2022/02/24 12:35:49;;;;;;;11.60;2.45;;;7.40;61.60;;;;;;5086800;28;20522;-60
2022/02/24 12:38:18;;;;;;;5.25;1.77;;;7.40;61.80;;;;;;5070374;28;20069;-60
2022/02/24 12:40:50;;;;;;;7.82;1.60;;;7.40;62.00;;;;;;5086469;28;20161;-61
2022/02/24 12:43:22;;;;;;;9.50;2.17;;;7.40;62.00;;;;;;5097434;28;20542;-61
2022/02/24 12:45:50;;;;;;;4.78;1.50;;;7.30;62.00;;;;;;5072324;28;20164;-61
2022/02/24 12:48:18;;;;;;;6.25;1.63;;;7.30;62.10;;;;;;5090681;28;20084;-61
2022/02/24 12:50:48;;;;;;;4.85;1.20;;;7.30;62.10;;;;;;5055708;28;20073;-60
2022/02/24 12:53:20;;;;;;;6.03;1.77;;;7.30;62.20;;;;;;5071120;28;20097;-60
2022/02/24 12:55:47;;;;;;;9.63;2.10;;;7.40;61.90;;;;;;5074832;28;20073;-61
2022/02/24 12:58:16;;;;;;;9.40;2.38;;;7.40;61.80;;;;;;5072869;28;20633;-61
2022/02/24 13:00:52;;;;;;;11.27;2.55;;;7.40;61.40;;;;;;5090596;28;20112;-60
2022/02/24 13:03:19;;;;;;;4.57;1.80;;;7.40;61.40;;;;;;5073919;28;20155;-60
2022/02/24 13:05:57;;;;;;;9.18;2.58;;;7.40;61.40;;;;;;5090199;28;20085;-60
2022/02/24 13:11:10;;;;;;;6.53;1.73;;;7.40;61.00;;;;;;5091554;28;20557;-61
2022/02/24 13:13:37;;;;;;;8.43;2.00;;;7.30;60.90;;;;;;5073778;28;20083;-61